Time;durP1;ratioP1;P1;durP2;ratioP2;P2;SDS_P1;SDS_P2;PMS_P1;PMS_P2;Temp;Humidity;BMP_temperature;BMP_pressure;BME280_temperature;BME280_humidity;BME280_pressure;Samples;Min_cycle;Max_cycle;Signal;HPM_P1;HPM_P2
2022/12/12 00:00:21;;;;;;;22.17;10.18;;;-0.70;99.90;;;-0.81;96.40;100403.06;5055969;28;20227;-72
2022/12/12 00:02:51;;;;;;;20.08;10.95;;;-0.60;99.90;;;-0.85;96.14;100385.72;5057855;28;20704;-73
2022/12/12 00:05:20;;;;;;;25.20;12.98;;;-0.70;99.90;;;-0.92;96.54;100385.47;5058508;28;20207;-73
2022/12/12 00:07:49;;;;;;;16.05;9.02;;;-0.70;99.90;;;-1.03;96.92;100385.59;5059871;28;20192;-71
2022/12/12 00:10:18;;;;;;;17.05;11.68;;;-0.80;99.90;;;-1.05;97.58;100391.06;5062663;28;20223;-72
2022/12/12 00:12:46;;;;;;;18.33;10.00;;;-0.90;99.90;;;-1.08;97.62;100391.34;5059001;28;20200;-73
2022/12/12 00:15:15;;;;;;;29.13;12.20;;;-0.90;99.90;;;-0.92;96.93;100388.13;5058396;28;20572;-73
2022/12/12 00:17:43;;;;;;;17.35;11.60;;;-0.80;99.90;;;-1.00;96.87;100387.97;5056430;28;20188;-72
2022/12/12 00:20:13;;;;;;;21.70;10.85;;;-0.80;99.90;;;-1.32;97.54;100389.09;5061858;28;20223;-72
2022/12/12 00:22:42;;;;;;;27.17;13.90;;;-1.00;99.90;;;-1.06;97.96;100377.91;5055790;28;20204;-72
2022/12/12 00:25:11;;;;;;;16.45;10.23;;;-0.90;99.90;;;-0.94;97.79;100371.47;5055953;28;20266;-72
2022/12/12 00:27:40;;;;;;;26.20;11.35;;;-0.90;99.90;;;-1.01;96.98;100373.00;5055468;28;20192;-72
2022/12/12 00:30:10;;;;;;;19.50;10.80;;;-0.80;99.90;;;-1.00;97.84;100372.03;5055681;28;20247;-73
2022/12/12 00:32:39;;;;;;;24.08;13.40;;;-0.90;99.90;;;-1.15;97.74;100360.16;5055174;28;20204;-70
2022/12/12 00:35:08;;;;;;;24.77;10.90;;;-1.00;99.90;;;-1.18;97.99;100365.75;5055411;28;20185;-71
2022/12/12 00:37:39;;;;;;;16.85;7.72;;;-1.00;99.90;;;-1.21;98.38;100368.72;5055464;28;20181;-71
2022/12/12 00:40:10;;;;;;;25.35;11.48;;;-1.00;99.90;;;-1.16;98.78;100383.22;5063651;28;20212;-72
2022/12/12 00:42:39;;;;;;;25.05;13.02;;;-1.00;99.90;;;-1.19;98.71;100372.03;5062651;28;20208;-71
2022/12/12 00:46:25;;;;;;;23.38;12.65;;;-1.00;99.90;;;-1.27;99.60;100377.22;5055427;28;20553;-71
2022/12/12 00:48:56;;;;;;;19.05;11.13;;;-1.10;99.90;;;-1.34;100.00;100369.81;5043216;28;20219;-72
2022/12/12 00:51:29;;;;;;;21.45;10.50;;;-1.20;99.90;;;-1.41;100.00;100374.00;5055508;28;20747;-71
2022/12/12 00:54:00;;;;;;;14.98;10.82;;;-1.20;99.90;;;-1.39;100.00;100381.81;5055202;28;20188;-71
2022/12/12 00:56:30;;;;;;;22.63;12.73;;;-1.20;99.90;;;-1.44;100.00;100381.38;5057839;28;20189;-71
2022/12/12 00:58:59;;;;;;;22.25;12.70;;;-1.30;99.90;;;-1.46;100.00;100397.47;5055264;28;20197;-71
2022/12/12 01:01:32;;;;;;;21.00;11.63;;;-1.20;99.90;;;-1.41;100.00;100394.41;5066399;28;20204;-71
2022/12/12 01:04:01;;;;;;;20.10;11.20;;;-1.20;99.90;;;-1.35;100.00;100399.97;5075215;28;20172;-71
2022/12/12 01:06:31;;;;;;;32.85;14.73;;;-1.20;99.90;;;-1.48;100.00;100406.53;5057726;28;20619;-70
2022/12/12 01:09:01;;;;;;;20.23;12.15;;;-1.30;99.90;;;-1.43;100.00;100410.44;5068359;28;20196;-72
2022/12/12 01:11:30;;;;;;;19.58;8.23;;;-1.30;99.90;;;-1.60;100.00;100403.16;5054922;28;20224;-71
2022/12/12 01:13:59;;;;;;;26.25;11.50;;;-1.30;99.90;;;-1.60;100.00;100410.28;5053683;28;20242;-70
2022/12/12 01:16:27;;;;;;;24.83;10.45;;;-1.40;99.90;;;-1.52;100.00;100413.94;5036624;28;20235;-71
2022/12/12 01:18:56;;;;;;;26.65;12.70;;;-1.30;99.90;;;-1.46;100.00;100402.78;5054356;28;20193;-70
2022/12/12 01:21:25;;;;;;;20.23;8.15;;;-1.30;99.90;;;-1.53;100.00;100406.94;5054146;28;20235;-69
2022/12/12 01:23:54;;;;;;;33.03;14.30;;;-1.30;99.90;;;-1.55;100.00;100405.41;5058031;28;20199;-70
2022/12/12 01:26:25;;;;;;;46.30;16.50;;;-1.30;99.90;;;-1.50;100.00;100406.66;5054284;28;20296;-70
2022/12/12 01:28:53;;;;;;;20.50;12.45;;;-1.30;99.90;;;-1.52;100.00;100403.31;5054481;28;20749;-70
2022/12/12 01:31:22;;;;;;;27.60;10.45;;;-1.30;99.90;;;-1.42;100.00;100404.19;5036487;28;20208;-70
2022/12/12 01:33:51;;;;;;;25.02;12.95;;;-1.30;99.90;;;-1.24;100.00;100406.97;5059535;28;20192;-70
2022/12/12 01:36:23;;;;;;;18.95;11.73;;;-1.20;99.90;;;-1.41;100.00;100410.31;5055810;28;20195;-71
2022/12/12 01:38:55;;;;;;;23.45;12.57;;;-1.20;99.90;;;-1.29;100.00;100413.66;5074316;28;20180;-71
2022/12/12 01:41:26;;;;;;;32.75;14.27;;;-1.10;99.90;;;-1.25;100.00;100409.75;5056801;28;20286;-72
2022/12/12 01:43:55;;;;;;;23.05;12.70;;;-1.10;99.90;;;-1.11;100.00;100406.69;5054263;28;20590;-71
2022/12/12 01:46:42;;;;;;;31.80;10.63;;;-1.00;99.90;;;-1.29;100.00;100405.72;5071500;28;20275;-72
2022/12/12 01:49:23;;;;;;;26.10;11.82;;;-1.10;99.90;;;-1.23;100.00;100407.81;5056579;28;20231;-71
2022/12/12 01:51:58;;;;;;;25.02;11.32;;;-1.00;99.90;;;-1.10;100.00;100413.69;5065499;28;20205;-72
2022/12/12 01:54:33;;;;;;;21.88;11.02;;;-1.00;99.90;;;-1.23;100.00;100408.66;5053597;28;20241;-71
2022/12/12 01:57:08;;;;;;;23.92;10.98;;;-1.00;99.90;;;-1.23;100.00;100418.44;5054090;28;20172;-72
2022/12/12 01:59:39;;;;;;;35.85;13.18;;;-1.10;99.90;;;-1.21;100.00;100409.34;5053577;28;20246;-72
2022/12/12 02:02:09;;;;;;;23.30;12.27;;;-1.10;99.90;;;-0.91;100.00;100395.09;5057767;28;20189;-71
2022/12/12 02:04:39;;;;;;;27.63;13.57;;;-0.90;99.90;;;-0.93;100.00;100394.41;5053620;28;20574;-72
2022/12/12 02:07:10;;;;;;;19.45;10.50;;;-0.90;99.90;;;-0.81;100.00;100379.16;5056518;28;20695;-72
2022/12/12 02:09:41;;;;;;;21.40;11.48;;;-0.70;99.90;;;-0.82;100.00;100380.97;5055922;28;20561;-70
2022/12/12 02:12:14;;;;;;;26.05;13.75;;;-0.70;99.90;;;-0.87;100.00;100389.34;5057704;28;20215;-71
2022/12/12 02:14:51;;;;;;;21.58;11.50;;;-0.70;99.90;;;-0.96;100.00;100390.22;5054039;28;20197;-71
2022/12/12 02:17:57;;;;;;;30.15;11.65;;;-0.80;99.90;;;-1.07;100.00;100400.16;5053343;28;20263;-72
2022/12/12 02:21:00;;;;;;;30.05;11.35;;;-0.90;99.90;;;-1.16;100.00;100391.19;5055483;28;20723;-71
2022/12/12 02:24:05;;;;;;;24.83;10.20;;;-0.90;99.90;;;-1.05;100.00;100398.19;5056999;28;20211;-72
2022/12/12 02:27:16;;;;;;;27.20;13.93;;;-0.90;99.90;;;-1.15;100.00;100392.88;5068207;28;20223;-72
2022/12/12 02:30:22;;;;;;;16.00;9.48;;;-1.00;99.90;;;-1.26;100.00;100400.16;5056649;28;20303;-72
2022/12/12 02:33:10;;;;;;;20.00;10.68;;;-1.00;99.90;;;-1.31;100.00;100393.41;5051977;28;20327;-71
2022/12/12 02:35:59;;;;;;;23.55;13.43;;;-1.10;99.90;;;-1.20;100.00;100396.91;5053565;28;20189;-72
2022/12/12 02:38:37;;;;;;;21.02;12.40;;;-1.00;99.90;;;-1.22;100.00;100398.88;5073079;28;20258;-71
2022/12/12 02:41:22;;;;;;;17.17;9.90;;;-1.00;99.90;;;-1.20;100.00;100404.88;5056548;28;20282;-71
2022/12/12 02:44:07;;;;;;;33.35;11.73;;;-1.00;99.90;;;-1.19;100.00;100393.28;5053386;28;20185;-70
2022/12/12 02:46:46;;;;;;;24.98;12.00;;;-1.00;99.90;;;-1.15;100.00;100400.00;5053585;28;20228;-72
2022/12/12 02:49:25;;;;;;;24.23;10.57;;;-1.00;99.90;;;-1.08;100.00;100401.13;5053533;28;20279;-72
2022/12/12 02:51:57;;;;;;;32.28;12.05;;;-0.90;99.90;;;-0.93;100.00;100400.56;5053033;28;20276;-71
2022/12/12 02:54:26;;;;;;;43.38;10.63;;;-0.80;99.90;;;-0.93;100.00;100394.41;5053118;28;20242;-71
2022/12/12 02:56:57;;;;;;;19.75;10.40;;;-0.80;99.90;;;-1.06;100.00;100399.16;5059305;28;20187;-70
2022/12/12 02:59:31;;;;;;;19.70;10.98;;;-0.80;99.90;;;-1.15;100.00;100406.13;5073429;28;20715;-70
2022/12/12 03:02:45;;;;;;;27.58;10.88;;;-0.90;99.90;;;-0.99;100.00;100406.44;5066429;28;20259;-72
2022/12/12 03:08:39;;;;;;;25.95;12.48;;;;;;;-0.88;100.00;100402.81;5053506;28;20185;-71
2022/12/12 03:11:12;;;;;;;31.00;14.98;;;;;;;-0.77;100.00;100399.97;5053065;28;20204;-72
2022/12/12 03:13:47;;;;;;;23.33;12.32;;;;;;;-0.89;100.00;100406.44;5053129;28;20247;-72
2022/12/12 03:16:26;;;;;;;34.35;14.02;;;;;;;-0.85;100.00;100406.97;5045175;28;20275;-72
2022/12/12 03:19:03;;;;;;;16.35;9.43;;;;;;;-0.73;100.00;100412.03;5053364;28;20216;-72
2022/12/12 03:21:42;;;;;;;23.80;11.77;;;;;;;-0.74;100.00;100414.81;5190363;22;20362;-75
2022/12/12 03:24:24;;;;;;;21.60;10.48;;;;;;;-0.77;100.00;100415.06;5057207;28;20263;-74
2022/12/12 03:27:00;;;;;;;25.92;11.73;;;;;;;-0.92;100.00;100412.84;5059127;28;20233;-75
2022/12/12 03:29:34;;;;;;;36.08;11.43;;;;;;;-0.80;100.00;100416.22;5073069;28;20539;-74
2022/12/12 03:32:12;;;;;;;25.77;14.48;;;;;;;-0.77;100.00;100405.28;5073035;28;20714;-74
2022/12/12 03:34:46;;;;;;;30.00;13.65;;;;;;;-0.62;100.00;100411.84;5057409;28;20743;-73
2022/12/12 03:37:26;;;;;;;20.00;11.20;;;;;;;-0.66;100.00;100409.63;5078125;28;20186;-74
2022/12/12 03:40:03;;;;;;;27.90;12.18;;;;;;;-0.47;100.00;100413.06;5063922;28;20275;-74
2022/12/12 03:42:42;;;;;;;31.25;14.25;;;;;;;-0.48;100.00;100411.41;5081464;28;20290;-74
2022/12/12 03:45:20;;;;;;;30.02;13.30;;;;;;;-0.51;100.00;100405.53;5078455;28;20225;-73
2022/12/12 03:47:56;;;;;;;24.08;13.18;;;;;;;-0.37;100.00;100414.88;5064326;28;20271;-74
2022/12/12 03:50:30;;;;;;;23.98;8.50;;;;;;;-0.57;100.00;100414.91;5060708;28;20257;-75
2022/12/12 03:53:10;;;;;;;29.73;13.02;;;;;;;-0.57;100.00;100417.56;5059044;28;20253;-73
2022/12/12 03:55:48;;;;;;;21.40;11.93;;;;;;;-0.44;100.00;100406.66;5076708;28;20675;-75
2022/12/12 03:58:23;;;;;;;23.42;11.30;;;;;;;-0.54;100.00;100417.31;5077396;28;20575;-73
2022/12/12 04:00:59;;;;;;;27.77;9.95;;;;;;;-0.47;100.00;100413.06;5071020;28;20397;-73
2022/12/12 04:03:38;;;;;;;31.17;11.48;;;;;;;-0.32;100.00;100409.97;5076057;28;20555;-74
2022/12/12 04:06:26;;;;;;;15.25;8.10;;;;;;;-0.41;100.00;100411.66;5058577;28;20180;-73
2022/12/12 04:15:16;;;;;;;27.20;10.02;;;;;;;-0.34;100.00;100409.28;5076284;28;20624;-75
2022/12/12 04:18:00;;;;;;;18.17;8.73;;;;;;;-0.25;100.00;100413.75;5076111;28;20215;-75
2022/12/12 04:23:37;;;;;;;30.73;11.75;;;;;;;-0.20;100.00;100408.81;5071670;28;20242;-74
2022/12/12 04:29:08;;;;;;;19.40;10.15;;;;;;;-0.12;100.00;100411.59;5076160;28;20199;-74
2022/12/12 04:31:43;;;;;;;20.90;10.65;;;;;;;-0.21;100.00;100412.47;5075763;28;20219;-74
2022/12/12 04:34:28;;;;;;;16.40;10.18;;;;;;;-0.28;100.00;100406.88;5075804;28;20244;-75
2022/12/12 04:37:02;;;;;;;18.15;10.45;;;;;;;-0.28;100.00;100400.72;5075623;28;20525;-74
2022/12/12 04:39:35;;;;;;;20.15;9.63;;;;;;;-0.28;100.00;100406.03;5075836;28;20676;-74
2022/12/12 04:42:09;;;;;;;19.88;9.80;;;;;;;-0.28;100.00;100406.03;5075979;28;20235;-74
2022/12/12 04:44:41;;;;;;;16.95;7.90;;;;;;;-0.28;100.00;100406.03;5068392;28;20176;-75
2022/12/12 04:47:13;;;;;;;18.90;8.63;;;;;;;-0.35;100.00;100404.94;5075693;28;20203;-74
2022/12/12 04:49:46;;;;;;;22.50;9.70;;;;;;;-0.26;100.00;100404.91;5068945;28;20238;-74
2022/12/12 04:52:19;;;;;;;23.98;9.85;;;;;;;-0.36;100.00;100405.94;5076089;28;20240;-73
2022/12/12 04:54:53;;;;;;;15.88;8.50;;;;;;;-0.35;100.00;100415.59;5075743;28;20613;-74
2022/12/12 04:57:27;;;;;;;15.18;7.72;;;;;;;-0.28;100.00;100412.19;5075989;28;20180;-74
2022/12/12 04:59:57;;;;;;;15.57;7.15;;;;;;;-0.27;100.00;100419.19;5076162;28;20670;-73
2022/12/12 05:02:32;;;;;;;9.82;7.40;;;;;;;-0.23;100.00;100422.38;5057787;28;20228;-74
2022/12/12 05:05:09;;;;;;;14.45;7.00;;;;;;;-0.26;100.00;100414.72;5075658;28;20652;-75
2022/12/12 05:07:40;;;;;;;10.77;6.75;;;;;;;-0.22;100.00;100421.41;5059035;28;20227;-74
2022/12/12 05:10:16;;;;;;;8.35;5.68;;;;;;;-0.19;100.00;100418.44;5059410;28;20180;-73
2022/12/12 05:12:49;;;;;;;11.93;7.30;;;;;;;-0.19;100.00;100424.63;5076578;28;20211;-73
2022/12/12 05:15:20;;;;;;;14.02;7.18;;;;;;;-0.27;100.00;100415.69;5057886;28;20559;-74
2022/12/12 05:17:56;;;;;;;10.20;6.20;;;;;;;-0.23;100.00;100419.72;5075923;28;20558;-73
2022/12/12 05:20:25;;;;;;;7.00;5.35;;;;;;;-0.24;100.00;100418.88;5063275;28;20214;-73
2022/12/12 05:22:54;;;;;;;9.43;5.88;;;;;;;-0.28;100.00;100420.16;5058678;28;20285;-74
2022/12/12 05:25:24;;;;;;;12.88;6.10;;;;;;;-0.23;100.00;100419.72;5076777;28;20208;-75
2022/12/12 05:27:54;;;;;;;9.45;6.45;;;;;;;-0.27;100.00;100423.66;5058137;28;20269;-74
2022/12/12 05:30:24;;;;;;;14.23;5.72;;;;;;;-0.14;100.00;100421.53;5077680;28;20212;-75
2022/12/12 05:32:53;;;;;;;9.65;6.30;;;;;;;-0.18;100.00;100420.13;5082317;28;20216;-73
2022/12/12 05:35:23;;;;;;;12.48;6.65;;;;;;;-0.25;100.00;100417.25;5058739;28;20184;-74
2022/12/12 05:37:52;;;;;;;9.93;6.57;;;;;;;-0.10;100.00;100421.09;5070833;28;20234;-74
2022/12/12 05:40:22;;;;;;;8.25;4.75;;;;;;;-0.20;100.00;100424.78;5060272;28;20181;-75
2022/12/12 05:42:54;;;;;;;8.90;6.03;;;;;;;-0.22;100.00;100422.25;5067646;28;20689;-75
2022/12/12 05:45:23;;;;;;;10.35;5.38;;;;;;;-0.23;100.00;100419.72;5097815;28;20223;-74
2022/12/12 05:47:52;;;;;;;10.82;5.32;;;;;;;-0.29;100.00;100417.69;5097269;28;20195;-75
2022/12/12 05:50:21;;;;;;;11.50;6.30;;;;;;;-0.32;100.00;100420.59;5090361;28;20659;-74
2022/12/12 05:53:00;;;;;;;12.35;5.35;;;;;;;-0.27;100.00;100421.00;5085227;28;20246;-74
2022/12/12 05:59:39;;;;;;;11.15;6.05;;;;;;;-0.34;100.00;100423.44;5091482;28;20237;-74
2022/12/12 06:02:10;;;;;;;5.78;3.70;;;;;;;-0.32;100.00;100426.75;5098491;28;20184;-74
2022/12/12 06:04:41;;;;;;;6.70;4.07;;;;;;;-0.39;100.00;100424.84;5098691;28;20172;-75
2022/12/12 06:07:11;;;;;;;5.40;3.67;;;;;;;-0.33;100.00;100429.56;5094062;28;20181;-74
2022/12/12 06:09:42;;;;;;;8.80;5.00;;;;;;;-0.44;100.00;100428.72;5088980;28;20200;-73
2022/12/12 06:12:18;;;;;;;5.82;4.22;;;;;;;-0.37;100.00;100428.16;5082014;28;20216;-73
2022/12/12 06:14:50;;;;;;;6.22;3.92;;;;;;;-0.33;100.00;100432.22;5076368;28;20219;-75
2022/12/12 06:17:22;;;;;;;7.80;4.97;;;;;;;-0.34;100.00;100433.22;5088055;28;20300;-74
2022/12/12 06:19:58;;;;;;;8.35;3.90;;;;;;;-0.31;100.00;100432.91;5091215;28;20183;-73
2022/12/12 06:22:29;;;;;;;11.43;6.13;;;;;;;-0.38;100.00;100442.44;5085703;28;20223;-75
2022/12/12 06:24:59;;;;;;;6.20;3.95;;;;;;;-0.30;100.00;100434.59;5080063;28;20243;-75
2022/12/12 06:27:30;;;;;;;5.32;4.30;;;;;;;-0.39;100.00;100444.28;5079401;28;20281;-76
2022/12/12 06:30:02;;;;;;;5.07;4.57;;;;;;;-0.32;100.00;100445.38;5070217;28;20197;-73
2022/12/12 06:32:32;;;;;;;6.57;3.75;;;;;;;-0.34;100.00;100441.19;5073599;28;20269;-74
2022/12/12 06:35:02;;;;;;;8.65;4.90;;;;;;;-0.37;100.00;100449.44;5077732;28;20249;-74
2022/12/12 06:37:35;;;;;;;11.20;5.13;;;;;;;-0.31;100.00;100446.22;5062608;28;20180;-73
2022/12/12 06:40:06;;;;;;;10.35;4.88;;;;;;;-0.19;100.00;100458.34;5066970;28;20202;-74
2022/12/12 06:42:36;;;;;;;6.75;3.90;;;;;;;-0.27;100.00;100450.25;5074811;28;20215;-74
2022/12/12 06:45:44;;;;;;;7.47;5.25;;;;;;;-0.23;100.00;100454.31;5069303;28;20686;-73
2022/12/12 06:48:15;;;;;;;7.15;5.25;;;;;;;-0.12;100.00;100464.78;5071906;28;20179;-73
2022/12/12 06:50:46;;;;;;;9.48;5.38;;;;;;;-0.18;100.00;100465.34;5073496;28;20242;-74
2022/12/12 06:53:26;;;;;;;8.55;5.85;;;;;;;-0.23;99.98;100467.59;5074408;28;20172;-74
2022/12/12 06:55:58;;;;;;;5.05;3.70;;;;;;;-0.19;99.79;100474.31;5070741;28;20274;-74
2022/12/12 06:58:28;;;;;;;6.38;5.18;;;;;;;-0.30;99.88;100472.66;5074410;28;20184;-75
2022/12/12 07:01:00;;;;;;;6.53;5.40;;;;;;;-0.36;99.90;100472.38;5074018;28;20684;-74
2022/12/12 07:03:31;;;;;;;6.30;4.22;;;;;;;-0.33;99.86;100472.09;5064539;28;20219;-74
2022/12/12 07:06:01;;;;;;;7.75;5.32;;;;;;;-0.26;100.00;100478.53;5056310;28;20165;-74
2022/12/12 07:08:32;;;;;;;4.90;4.25;;;;;;;-0.27;100.00;100475.03;5056452;28;20169;-73
2022/12/12 07:11:08;;;;;;;7.80;5.35;;;;;;;-0.09;100.00;100481.28;5065914;28;20215;-73
2022/12/12 07:13:39;;;;;;;8.70;4.70;;;;;;;-0.24;99.46;100481.91;5075445;28;20196;-74
2022/12/12 07:16:11;;;;;;;7.57;5.63;;;;;;;-0.31;99.43;100480.78;5049608;28;20656;-74
2022/12/12 07:18:43;;;;;;;6.65;4.60;;;;;;;-0.29;99.35;100486.81;5071233;28;20188;-73
2022/12/12 07:21:15;;;;;;;6.90;4.75;;;;;;;-0.29;98.92;100489.47;5077983;28;20223;-75
2022/12/12 07:23:45;;;;;;;8.10;4.80;;;;;;;-0.28;98.16;100489.28;5081585;28;20232;-74
2022/12/12 07:26:16;;;;;;;10.40;4.63;;;;;;;-0.27;98.25;100482.16;5058121;28;20238;-74
2022/12/12 07:28:45;;;;;;;4.65;4.20;;;;;;;-0.32;98.60;100487.06;5084071;28;20224;-74
2022/12/12 07:31:17;;;;;;;7.10;5.65;;;;;;;-0.27;98.78;100487.47;5065497;28;20292;-73
2022/12/12 07:33:47;;;;;;;11.57;7.40;;;;;;;-0.29;97.83;100497.44;5084446;28;20607;-74
2022/12/12 07:36:16;;;;;;;10.85;8.02;;;;;;;-0.29;97.84;100494.78;5084059;28;20212;-73
2022/12/12 07:38:46;;;;;;;10.85;7.88;;;;;;;-0.26;97.89;100499.81;5084736;28;20223;-74
2022/12/12 07:41:17;;;;;;;12.48;9.02;;;;;;;-0.34;97.64;100497.88;5085745;28;20234;-74
2022/12/12 07:44:01;;;;;;;6.90;5.20;;;;;;;-0.38;97.92;100496.44;5067098;28;20209;-74
2022/12/12 07:46:32;;;;;;;16.67;12.55;;;;;;;-0.29;97.97;100505.41;5085742;28;20192;-74
2022/12/12 07:49:01;;;;;;;10.52;8.23;;;;;;;-0.27;97.30;100509.59;5069050;28;20188;-75
2022/12/12 07:51:31;;;;;;;10.88;8.98;;;;;;;-0.24;97.18;100498.66;5076819;28;20227;-74
2022/12/12 07:54:00;;;;;;;9.88;8.88;;;;;;;-0.20;96.83;100512.53;5082228;28;20196;-73
2022/12/12 07:56:30;;;;;;;11.40;8.73;;;;;;;-0.28;97.16;100507.06;5081434;28;20200;-74
2022/12/12 07:58:59;;;;;;;8.48;7.22;;;;;;;-0.25;96.58;100512.13;5064404;28;20208;-75
2022/12/12 08:01:29;;;;;;;5.65;4.82;;;;;;;-0.32;96.36;100518.97;5076713;28;20242;-74
2022/12/12 08:04:00;;;;;;;7.72;5.38;;;;;;;-0.11;96.50;100520.50;5085055;28;20172;-74
2022/12/12 08:06:29;;;;;;;9.60;6.03;;;;;;;-0.17;95.69;100520.22;5074140;28;20192;-73
2022/12/12 08:08:59;;;;;;;6.45;4.65;;;;;;;-0.10;95.62;100524.00;5065763;28;20191;-73
2022/12/12 08:11:28;;;;;;;8.35;4.57;;;;;;;-0.14;95.52;100522.59;5077890;28;20243;-74
2022/12/12 08:13:57;;;;;;;8.95;4.97;;;;;;;-0.14;94.33;100525.25;5059664;28;20204;-76
2022/12/12 08:16:29;;;;;;;9.88;5.53;;;;;;;-0.24;94.19;100529.75;5077321;28;20251;-74
2022/12/12 08:19:00;;;;;;;9.55;5.32;;;;;;;-0.22;94.72;100533.09;5077837;28;20226;-74
2022/12/12 08:21:29;;;;;;;7.80;6.03;;;;;;;-0.17;94.65;100537.03;5047982;28;20232;-75
2022/12/12 08:24:00;;;;;;;8.80;5.13;;;;;;;-0.24;93.54;100541.22;5065750;28;20177;-75
2022/12/12 08:26:29;;;;;;;9.75;6.25;;;;;;;-0.21;93.93;100545.41;5073660;28;20184;-75
2022/12/12 08:28:59;;;;;;;6.97;3.95;;;;;;;-0.09;93.01;100544.28;5043775;28;20713;-75
2022/12/12 08:31:28;;;;;;;8.23;5.63;;;;;;;-0.09;93.30;100544.28;5075036;28;20743;-74
2022/12/12 08:34:01;;;;;;;5.80;4.68;;;;;;;0.03;93.50;100552.94;5068190;28;20218;-75
2022/12/12 08:36:32;;;;;;;5.30;4.30;;;;;;;-0.12;92.74;100547.22;5074706;28;20287;-74
2022/12/12 08:39:05;;;;;;;11.90;5.03;;;;;;;-0.13;92.68;100546.38;5081418;28;20198;-74
2022/12/12 08:41:36;;;;;;;11.02;5.22;;;;;;;-0.17;92.79;100549.47;5080801;28;20259;-74
2022/12/12 08:44:06;;;;;;;9.73;6.07;;;;;;;-0.13;92.49;100553.53;5082477;28;20312;-75
2022/12/12 08:46:36;;;;;;;5.80;3.92;;;;;;;-0.25;92.22;100550.19;5077787;28;20189;-75
2022/12/12 08:49:07;;;;;;;9.00;5.25;;;;;;;-0.13;91.76;100553.53;5064674;28;20249;-75
2022/12/12 08:51:37;;;;;;;6.82;4.38;;;;;;;-0.27;91.79;100556.63;5071482;28;20231;-74
2022/12/12 08:54:12;;;;;;;5.22;2.97;;;;;;;-0.15;91.33;100560.81;5080029;28;20598;-75
2022/12/12 08:56:42;;;;;;;7.22;4.00;;;;;;;-0.16;91.44;100564.47;5078429;28;20741;-75
2022/12/12 08:59:12;;;;;;;8.02;5.57;;;;;;;-0.05;91.26;100570.44;5065991;28;20714;-75
2022/12/12 09:01:41;;;;;;;6.20;4.45;;;;;;;0.06;90.69;100572.13;5079830;28;20216;-75
2022/12/12 09:04:38;;;;;;;4.60;4.13;;;;;;;-0.22;90.99;100573.84;5048242;28;20200;-74
2022/12/12 09:07:07;;;;;;;4.40;3.90;;;;;;;-0.23;90.73;100584.59;5073989;28;20192;-75
2022/12/12 09:09:37;;;;;;;6.32;4.43;;;;;;;-0.24;90.19;100582.94;5077669;28;20606;-76
2022/12/12 09:12:06;;;;;;;6.25;4.30;;;;;;;-0.20;90.48;100590.50;5075758;28;20216;-74
2022/12/12 09:14:35;;;;;;;8.80;4.82;;;;;;;-0.34;90.49;100587.41;5076412;28;20238;-74
2022/12/12 09:17:04;;;;;;;6.00;3.08;;;;;;;-0.41;90.72;100586.28;5076632;28;20214;-75
2022/12/12 09:19:33;;;;;;;4.50;3.42;;;;;;;-0.39;91.17;100589.66;5077267;28;20230;-73
2022/12/12 09:22:04;;;;;;;5.72;3.55;;;;;;;-0.31;91.19;100597.75;5144083;22;20472;-70
2022/12/12 09:24:33;;;;;;;7.22;4.60;;;;;;;-0.29;90.36;100601.94;5076511;28;20260;-72
2022/12/12 09:27:02;;;;;;;4.75;3.80;;;;;;;-0.40;90.85;100601.25;5074307;28;20177;-72
2022/12/12 09:29:31;;;;;;;2.22;2.03;;;;;;;-0.40;90.34;100603.91;5093785;28;20640;-71
2022/12/12 09:32:30;;;;;;;4.93;3.53;;;;;;;-0.41;90.10;100597.75;5083237;28;20208;-71
2022/12/12 09:34:59;;;;;;;4.18;3.25;;;;;;;-0.28;89.43;100603.63;5099626;28;20236;-72
2022/12/12 09:37:31;;;;;;;5.95;4.35;;;;;;;-0.30;89.05;100599.44;5077915;28;20203;-71
2022/12/12 09:40:00;;;;;;;5.65;3.88;;;;;;;-0.27;88.89;100600.00;5095757;28;20258;-72
2022/12/12 09:42:32;;;;;;;6.28;3.15;;;;;;;-0.21;88.82;100603.94;5094829;28;20728;-72
2022/12/12 09:45:04;;;;;;;4.30;3.55;;;;;;;-0.03;88.20;100591.59;5095138;28;20523;-73
2022/12/12 09:47:41;;;;;;;10.20;4.32;;;;;;;-0.10;88.29;100599.28;5094601;28;20187;-72
2022/12/12 09:50:21;;;;;;;5.40;3.42;;;;;;;-0.26;87.78;100590.22;5093661;28;20191;-72
2022/12/12 09:52:54;;;;;;;5.63;4.03;;;;;;;-0.13;87.56;100596.91;5074107;28;20211;-72
2022/12/12 09:55:37;;;;;;;6.38;4.45;;;;;;;-0.30;87.22;100604.78;5088012;28;20214;-72
2022/12/12 09:58:17;;;;;;;5.15;3.33;;;;;;;-0.44;88.58;100601.53;5078721;28;20202;-72
2022/12/12 10:00:52;;;;;;;5.00;3.85;;;;;;;-0.30;88.19;100600.28;5085285;28;20191;-72
2022/12/12 10:03:44;;;;;;;5.60;4.95;;;;;;;-0.29;88.05;100595.81;5078138;28;20216;-71
2022/12/12 10:06:19;;;;;;;6.07;3.67;;;;;;;-0.34;87.88;100590.06;5085761;28;20199;-71
2022/12/12 10:09:29;;;;;;;9.30;4.80;;;;;;;-0.47;88.11;100598.31;5094925;28;20195;-72
2022/12/12 10:12:05;;;;;;;6.10;3.28;;;;;;;-0.36;86.95;100605.31;5081668;28;20587;-72
2022/12/12 10:14:40;;;;;;;3.75;1.98;;;;;;;-0.21;86.17;100598.59;5074802;28;20193;-71
2022/12/12 10:17:15;;;;;;;3.83;3.42;;;;;;;-0.26;85.97;100600.84;5091255;28;20714;-73
2022/12/12 10:19:49;;;;;;;5.38;3.80;;;;;;;-0.34;85.50;100603.38;5090062;28;20187;-71
2022/12/12 10:22:25;;;;;;;8.52;3.83;;;;;;;-0.44;85.56;100604.19;5087006;28;20603;-71
2022/12/12 10:25:06;;;;;;;9.20;6.15;;;;;;;-0.43;86.46;100603.22;5080677;28;20554;-71
2022/12/12 10:27:35;;;;;;;4.97;2.58;;;;;;;-0.24;86.26;100599.72;5093661;28;20667;-72
2022/12/12 10:30:16;;;;;;;4.22;3.05;;;;;;;-0.44;85.76;100603.38;5085512;28;20246;-71
2022/12/12 10:33:08;;;;;;;3.60;3.00;;;;;;;-0.36;86.04;100594.69;5086707;28;20211;-71
2022/12/12 10:35:43;;;;;;;5.43;3.25;;;;;;;-0.40;86.76;100604.75;5080568;28;20572;-71
2022/12/12 10:38:28;;;;;;;5.43;3.75;;;;;;;-0.40;86.11;100604.75;5087079;28;20236;-70
2022/12/12 10:41:48;;;;;;;5.25;4.00;;;;;;;-0.44;85.61;100598.84;5094015;28;20192;-71
2022/12/12 10:44:38;;;;;;;7.05;5.55;;;;;;;-0.44;86.29;100604.19;5093537;28;20274;-71
2022/12/12 10:47:14;;;;;;;4.72;3.50;;;;;;;-0.32;85.62;100598.75;5086346;28;20191;-71
2022/12/12 10:49:43;;;;;;;4.70;2.90;;;;;;;-0.42;84.94;100601.38;5093281;28;20211;-71
2022/12/12 10:52:18;;;;;;;5.10;4.10;;;;;;;-0.32;84.01;100596.06;5093759;28;20267;-72
2022/12/12 10:54:51;;;;;;;5.78;4.30;;;;;;;-0.29;82.82;100591.31;5093564;28;20597;-72
2022/12/12 10:57:23;;;;;;;9.48;5.57;;;;;;;-0.27;81.41;100593.84;5093945;28;20237;-71
2022/12/12 10:59:55;;;;;;;4.10;3.38;;;;;;;-0.27;81.91;100596.50;5094573;28;20219;-72
2022/12/12 11:02:37;;;;;;;4.50;2.78;;;;;;;-0.32;81.23;100593.41;5079435;28;20254;-71
2022/12/12 11:05:17;;;;;;;4.78;2.75;;;;;;;-0.46;82.84;100598.19;5075343;28;20226;-72
2022/12/12 11:07:48;;;;;;;3.88;2.83;;;;;;;-0.48;83.55;100602.78;5091170;28;20221;-71
2022/12/12 11:10:29;;;;;;;4.85;3.47;;;;;;;-0.40;83.75;100598.59;5095461;28;20350;-69
2022/12/12 11:13:13;;;;;;;5.32;4.82;;;;;;;-0.13;83.94;100596.06;5094408;28;20211;-71
2022/12/12 11:16:33;;;;;;;3.70;2.53;;;;;;;-0.09;83.49;100598.31;5073919;28;20187;-71
2022/12/12 11:19:07;;;;;;;5.22;3.10;;;;;;;-0.09;83.21;100589.50;5080205;28;20190;-68
2022/12/12 11:21:38;;;;;;;8.48;5.38;;;;;;;0.24;82.17;100583.69;5093870;28;20195;-69
2022/12/12 11:24:13;;;;;;;6.47;4.25;;;;;;;0.24;80.82;100593.53;5093568;28;20609;-70
2022/12/12 11:26:46;;;;;;;4.47;3.88;;;;;;;0.10;80.10;100591.31;5093663;28;20171;-71
2022/12/12 11:29:30;;;;;;;4.60;3.72;;;;;;;-0.09;80.97;100598.31;5087596;28;20192;-70
2022/12/12 11:32:00;;;;;;;5.07;3.25;;;;;;;-0.09;81.22;100597.47;5093618;28;20557;-70
2022/12/12 11:34:34;;;;;;;4.43;3.17;;;;;;;0.05;81.51;100594.38;5093502;28;20237;-69
2022/12/12 11:37:03;;;;;;;4.72;4.22;;;;;;;0.25;80.25;100595.19;5093572;28;20229;-71
2022/12/12 11:39:44;;;;;;;6.25;4.13;;;;;;;0.33;79.39;100598.84;5093195;28;20214;-70
2022/12/12 11:42:24;;;;;;;6.47;3.60;;;;;;;0.41;79.42;100601.59;5086878;28;20223;-70
2022/12/12 11:45:02;;;;;;;4.53;3.50;;;;;;;0.21;79.19;100605.28;5090458;28;20187;-70
2022/12/12 11:47:39;;;;;;;6.55;3.63;;;;;;;0.08;79.96;100604.75;5093357;28;20203;-70